createdAt,value
2018-08-13T00:01:51.789Z,17.03
2018-08-13T00:04:21.938Z,17.11
2018-08-13T00:06:52.122Z,17.09
2018-08-13T00:09:42.159Z,17.07
2018-08-13T00:12:13.554Z,17.06
2018-08-13T00:14:43.757Z,17.25
2018-08-13T00:17:13.900Z,17.14
2018-08-13T00:19:44.143Z,17.11
2018-08-13T00:22:14.574Z,17.13
2018-08-13T00:24:44.751Z,17.12
2018-08-13T00:27:14.897Z,17.13
2018-08-13T00:29:45.051Z,17.21
2018-08-13T00:32:17.134Z,17.32
2018-08-13T00:34:47.341Z,17.44
2018-08-13T00:37:17.566Z,17.54
2018-08-13T00:39:48.205Z,17.68
2018-08-13T00:42:18.332Z,17.78
2018-08-13T00:44:48.460Z,17.96
2018-08-13T00:47:18.673Z,17.99
2018-08-13T00:49:48.858Z,18.02
2018-08-13T00:52:18.998Z,18.08
2018-08-13T00:54:49.345Z,18.60
2018-08-13T00:57:19.452Z,18.91
2018-08-13T00:59:49.615Z,19.16
2018-08-13T01:02:19.765Z,19.19
2018-08-13T01:04:49.989Z,19.34
2018-08-13T01:07:20.391Z,19.25
2018-08-13T01:09:50.627Z,19.33
2018-08-13T01:12:20.752Z,19.42
2018-08-13T01:14:50.992Z,19.40
2018-08-13T01:17:21.236Z,19.41
2018-08-13T01:19:51.537Z,19.19
2018-08-13T01:22:21.610Z,18.88
2018-08-13T01:24:51.745Z,18.57
2018-08-13T01:27:27.031Z,18.27
2018-08-13T01:29:57.265Z,17.99
2018-08-13T01:32:27.384Z,17.78
2018-08-13T01:34:57.546Z,17.82
2018-08-13T01:37:28.497Z,17.80
2018-08-13T01:39:58.954Z,17.67
2018-08-13T01:42:29.010Z,17.63
2018-08-13T01:44:59.158Z,17.55
2018-08-13T01:47:29.266Z,17.50
2018-08-13T01:49:59.426Z,17.38
2018-08-13T01:52:29.566Z,17.27
2018-08-13T01:54:59.769Z,17.18
2018-08-13T01:57:30.001Z,17.09
2018-08-13T02:00:00.613Z,16.97
2018-08-13T02:02:30.771Z,16.85
2018-08-13T02:05:01.079Z,16.81
2018-08-13T02:07:31.240Z,16.73
2018-08-13T02:10:01.748Z,16.71
2018-08-13T02:12:31.941Z,16.69
2018-08-13T02:15:02.418Z,16.64
2018-08-13T02:17:32.743Z,16.58
2018-08-13T02:20:02.996Z,16.55
2018-08-13T02:22:33.269Z,16.56
2018-08-13T02:25:03.888Z,16.51
2018-08-13T02:27:34.023Z,16.58
2018-08-13T02:30:07.757Z,16.70
2018-08-13T02:32:38.451Z,16.85
2018-08-13T02:35:09.912Z,17.14
2018-08-13T02:37:40.627Z,17.57
2018-08-13T02:40:11.592Z,17.99
2018-08-13T02:42:41.832Z,18.27
2018-08-13T02:45:12.501Z,18.40
2018-08-13T02:47:42.607Z,18.56
2018-08-13T02:50:14.645Z,18.49
2018-08-13T02:52:45.144Z,18.51
2018-08-13T02:55:15.422Z,18.50
2018-08-13T02:57:45.848Z,18.53
2018-08-13T03:00:16.324Z,18.50
2018-08-13T03:02:46.558Z,18.48
2018-08-13T03:05:17.060Z,18.45
2018-08-13T03:07:47.379Z,18.48
2018-08-13T03:10:17.592Z,18.39
2018-08-13T03:12:47.798Z,18.26
2018-08-13T03:15:18.005Z,18.19
2018-08-13T03:17:48.115Z,18.10
2018-08-13T03:20:18.269Z,18.11
2018-08-13T03:22:48.427Z,18.31
2018-08-13T03:25:18.711Z,18.33
2018-08-13T03:27:49.072Z,18.51
2018-08-13T03:30:19.305Z,18.71
2018-08-13T03:32:49.466Z,18.94
2018-08-13T03:35:19.593Z,18.98
2018-08-13T03:37:49.753Z,19.00
2018-08-13T03:40:19.954Z,18.96
2018-08-13T03:42:50.123Z,18.92
2018-08-13T03:45:20.219Z,18.91
2018-08-13T03:47:50.272Z,18.82
2018-08-13T03:50:20.401Z,18.83
2018-08-13T03:52:50.525Z,18.81
2018-08-13T03:55:20.704Z,18.80
2018-08-13T03:57:50.822Z,18.77
2018-08-13T04:00:21.005Z,18.82
2018-08-13T04:02:51.095Z,18.76
2018-08-13T04:05:21.306Z,18.67
2018-08-13T04:07:51.382Z,18.60
2018-08-13T04:10:21.626Z,18.64
2018-08-13T04:12:51.830Z,18.65
2018-08-13T04:15:22.083Z,18.67
2018-08-13T04:17:52.289Z,18.64
2018-08-13T04:20:22.713Z,18.72
2018-08-13T04:22:52.880Z,18.71
2018-08-13T04:25:23.043Z,18.61
2018-08-13T04:27:53.176Z,18.58
2018-08-13T04:30:23.389Z,18.54
2018-08-13T04:32:53.590Z,18.55
2018-08-13T04:35:23.741Z,18.58
2018-08-13T04:37:53.789Z,18.73
2018-08-13T04:40:23.927Z,18.89
2018-08-13T04:42:54.084Z,18.86
2018-08-13T04:45:24.259Z,18.90
2018-08-13T04:47:56.320Z,19.06
2018-08-13T04:50:26.452Z,19.04
2018-08-13T04:52:56.581Z,18.76
2018-08-13T04:55:26.825Z,18.62
2018-08-13T04:57:57.392Z,18.38
2018-08-13T05:00:27.503Z,18.17
2018-08-13T05:02:57.578Z,17.89
2018-08-13T05:05:27.858Z,17.69
2018-08-13T05:07:57.978Z,17.61
2018-08-13T05:10:28.211Z,17.48
2018-08-13T05:12:58.364Z,17.37
2018-08-13T05:15:28.596Z,17.29
2018-08-13T05:17:58.764Z,17.06
2018-08-13T05:20:29.029Z,16.98
2018-08-13T05:22:59.124Z,16.86
2018-08-13T05:25:29.254Z,16.78
2018-08-13T05:27:59.448Z,16.71
2018-08-13T05:30:29.639Z,16.87
2018-08-13T05:32:59.804Z,17.00
2018-08-13T05:35:29.987Z,17.29
2018-08-13T05:38:00.171Z,17.24
2018-08-13T05:40:30.377Z,17.42
2018-08-13T05:43:00.570Z,17.38
2018-08-13T05:45:30.698Z,17.37
2018-08-13T05:48:00.827Z,17.41
2018-08-13T05:50:31.213Z,17.45
2018-08-13T05:53:01.397Z,17.63
2018-08-13T05:55:31.530Z,17.60
2018-08-13T05:58:01.651Z,17.66
2018-08-13T06:00:31.899Z,17.60
2018-08-13T06:03:02.059Z,17.58
2018-08-13T06:05:32.267Z,17.56
2018-08-13T06:08:02.334Z,17.57
2018-08-13T06:10:32.517Z,17.54
2018-08-13T06:13:02.714Z,17.62
2018-08-13T06:15:32.950Z,17.60
2018-08-13T06:18:03.191Z,17.55
2018-08-13T06:20:33.298Z,17.50
2018-08-13T06:23:03.511Z,17.55
2018-08-13T06:25:33.607Z,17.59
2018-08-13T06:28:03.788Z,17.62
2018-08-13T06:30:33.959Z,17.45
2018-08-13T06:33:04.222Z,17.47
2018-08-13T06:35:34.440Z,17.51
2018-08-13T06:38:04.722Z,17.45
2018-08-13T06:40:34.876Z,17.27
2018-08-13T06:43:05.097Z,17.40
2018-08-13T06:45:35.347Z,17.31
2018-08-13T06:48:05.442Z,17.31
2018-08-13T06:50:35.664Z,17.25
2018-08-13T06:53:05.854Z,17.44
2018-08-13T06:55:36.046Z,17.55
2018-08-13T06:58:06.583Z,17.85
2018-08-13T07:00:36.872Z,18.11
2018-08-13T07:03:07.556Z,18.43
2018-08-13T07:05:37.685Z,18.77
2018-08-13T07:08:08.436Z,18.90
2018-08-13T07:10:38.648Z,19.09
2018-08-13T07:13:08.870Z,19.20
2018-08-13T07:15:39.110Z,19.36
2018-08-13T07:18:09.333Z,19.27
2018-08-13T07:20:39.468Z,19.61
2018-08-13T07:23:09.630Z,19.86
2018-08-13T07:25:39.888Z,20.01
2018-08-13T07:28:10.107Z,20.23
2018-08-13T07:30:40.283Z,20.29
2018-08-13T07:33:10.456Z,20.47
2018-08-13T07:35:40.618Z,20.52
2018-08-13T07:38:10.773Z,20.77
2018-08-13T07:40:40.916Z,20.80
2018-08-13T07:43:11.230Z,20.91
2018-08-13T07:45:41.421Z,21.01
2018-08-13T07:48:11.577Z,21.05
2018-08-13T07:50:41.778Z,21.06
2018-08-13T07:53:11.942Z,21.18
2018-08-13T07:55:42.097Z,21.12
2018-08-13T07:58:12.280Z,21.21
2018-08-13T08:00:42.377Z,21.13
2018-08-13T08:03:12.576Z,21.07
2018-08-13T08:05:42.775Z,21.04
2018-08-13T08:08:12.963Z,21.08
2018-08-13T08:10:43.072Z,21.20
2018-08-13T08:13:13.264Z,21.24
2018-08-13T08:15:43.564Z,21.37
2018-08-13T08:18:13.679Z,21.49
2018-08-13T08:20:44.002Z,21.56
2018-08-13T08:23:14.378Z,21.81
2018-08-13T08:25:44.571Z,22.04
2018-08-13T08:28:14.743Z,21.92
2018-08-13T08:30:44.968Z,21.90
2018-08-13T08:33:15.110Z,22.24
2018-08-13T08:35:45.388Z,21.99
2018-08-13T08:38:15.529Z,22.00
2018-08-13T08:40:45.726Z,22.16
2018-08-13T08:43:15.946Z,21.91
2018-08-13T08:45:46.195Z,21.88
2018-08-13T08:48:16.316Z,21.90
2018-08-13T08:50:46.449Z,21.87
2018-08-13T08:53:16.588Z,21.94
2018-08-13T08:55:46.791Z,21.97
2018-08-13T08:58:16.944Z,21.89
2018-08-13T09:00:47.448Z,21.95
2018-08-13T09:03:17.643Z,22.13
2018-08-13T09:05:47.800Z,21.78
2018-08-13T09:08:18.047Z,21.60
2018-08-13T09:10:48.290Z,21.46
2018-08-13T09:13:18.423Z,21.28
2018-08-13T09:15:48.608Z,21.06
2018-08-13T09:18:35.218Z,21.11
2018-08-13T09:21:21.944Z,21.25
2018-08-13T09:24:09.118Z,21.87
2018-08-13T09:26:55.864Z,22.59
2018-08-13T09:29:42.503Z,23.19
2018-08-13T09:32:33.101Z,23.76
2018-08-13T09:35:25.517Z,24.76
2018-08-13T09:37:56.615Z,25.30
2018-08-13T09:40:27.620Z,24.31
2018-08-13T09:42:57.830Z,23.86
2018-08-13T09:45:27.989Z,23.74
2018-08-13T09:47:58.278Z,23.62
2018-08-13T09:50:28.407Z,23.46
2018-08-13T09:52:58.545Z,23.40
2018-08-13T09:55:28.731Z,23.52
2018-08-13T09:57:58.883Z,24.09
2018-08-13T10:00:34.180Z,24.89
2018-08-13T10:03:04.904Z,25.20
2018-08-13T10:05:35.060Z,25.50
2018-08-13T10:08:05.887Z,25.30
2018-08-13T10:10:36.145Z,24.88
2018-08-13T10:13:06.435Z,24.63
2018-08-13T10:15:40.361Z,25.04
2018-08-13T10:18:18.211Z,25.14
2018-08-13T10:20:52.784Z,25.17
2018-08-13T10:23:25.316Z,25.42
2018-08-13T10:25:55.515Z,25.33
2018-08-13T10:28:25.711Z,25.37
2018-08-13T10:30:55.852Z,25.43
2018-08-13T10:33:26.045Z,25.05
2018-08-13T10:35:56.205Z,25.12
2018-08-13T10:38:26.376Z,25.35
2018-08-13T10:40:56.487Z,25.53
2018-08-13T10:43:26.772Z,25.25
2018-08-13T10:45:56.900Z,25.43
2018-08-13T10:48:27.090Z,25.86
2018-08-13T10:50:57.235Z,26.29
2018-08-13T10:53:27.436Z,26.53
2018-08-13T10:55:57.651Z,26.43
2018-08-13T10:58:27.881Z,25.93
2018-08-13T11:00:58.166Z,25.95
2018-08-13T11:03:29.826Z,26.59
2018-08-13T11:06:00.079Z,26.64
2018-08-13T11:08:30.394Z,26.45
2018-08-13T11:11:06.017Z,26.09
2018-08-13T11:13:36.243Z,26.20
2018-08-13T11:16:06.395Z,26.37
2018-08-13T11:18:36.902Z,26.51
2018-08-13T11:21:07.133Z,26.50
2018-08-13T11:23:37.446Z,26.46
2018-08-13T11:26:08.176Z,26.07
2018-08-13T11:28:38.336Z,25.61
2018-08-13T11:31:08.475Z,25.34
2018-08-13T11:33:38.643Z,25.31
2018-08-13T11:36:08.808Z,25.32
2018-08-13T11:38:38.954Z,25.16
2018-08-13T11:41:09.075Z,25.16
2018-08-13T11:43:39.323Z,25.29
2018-08-13T11:46:09.533Z,25.20
2018-08-13T11:48:39.880Z,25.07
2018-08-13T11:51:10.179Z,24.92
2018-08-13T11:53:40.605Z,24.94
2018-08-13T11:56:10.863Z,24.94
2018-08-13T11:58:41.236Z,25.08
2018-08-13T12:01:11.570Z,25.37
2018-08-13T12:03:41.769Z,25.45
2018-08-13T12:06:11.876Z,25.98
2018-08-13T12:08:42.131Z,26.28
2018-08-13T12:11:12.359Z,26.43
2018-08-13T12:13:42.511Z,26.00
2018-08-13T12:16:12.719Z,25.37
2018-08-13T12:18:43.139Z,25.24
2018-08-13T12:21:13.342Z,25.25
2018-08-13T12:23:43.489Z,24.95
2018-08-13T12:26:13.644Z,24.79
2018-08-13T12:28:43.761Z,24.53
2018-08-13T12:31:14.871Z,24.50
2018-08-13T12:33:46.016Z,24.31
2018-08-13T12:36:16.158Z,24.14
2018-08-13T12:38:46.414Z,23.95
2018-08-13T12:41:16.644Z,23.76
2018-08-13T12:43:46.858Z,23.70
2018-08-13T12:46:16.962Z,23.57
2018-08-13T12:48:47.212Z,23.52
2018-08-13T12:51:17.369Z,23.39
2018-08-13T12:53:47.586Z,23.28
2018-08-13T12:56:17.693Z,23.26
2018-08-13T12:58:47.780Z,23.28
2018-08-13T13:01:17.907Z,23.33
2018-08-13T13:03:48.171Z,23.28
2018-08-13T13:06:18.280Z,23.07
2018-08-13T13:08:48.686Z,23.21
2018-08-13T13:11:18.860Z,23.63
2018-08-13T13:13:49.210Z,23.86
2018-08-13T13:16:19.289Z,24.18
2018-08-13T13:18:49.440Z,24.05
2018-08-13T13:21:19.844Z,23.78
2018-08-13T13:23:50.022Z,24.28
2018-08-13T13:26:20.270Z,24.86
2018-08-13T13:28:50.433Z,24.93
2018-08-13T13:31:20.514Z,25.20
2018-08-13T13:33:50.770Z,25.60
2018-08-13T13:36:21.203Z,25.18
2018-08-13T13:38:51.365Z,25.35
2018-08-13T13:41:21.563Z,25.46
2018-08-13T13:43:51.713Z,25.40
2018-08-13T13:46:21.888Z,25.30
2018-08-13T13:48:52.071Z,24.96
2018-08-13T13:51:22.162Z,25.01
2018-08-13T13:53:52.336Z,24.78
2018-08-13T13:56:22.471Z,24.85
2018-08-13T13:58:52.620Z,25.16
2018-08-13T14:01:22.835Z,25.15
2018-08-13T14:03:53.399Z,24.62
2018-08-13T14:06:24.039Z,24.37
2018-08-13T14:08:54.156Z,24.07
2018-08-13T14:11:24.283Z,23.54
2018-08-13T14:13:54.473Z,23.26
2018-08-13T14:16:24.719Z,23.08
2018-08-13T14:18:55.288Z,22.87
2018-08-13T14:21:25.949Z,22.66
2018-08-13T14:23:56.150Z,22.59
2018-08-13T14:26:26.279Z,22.47
2018-08-13T14:28:56.711Z,21.42
2018-08-13T14:31:27.026Z,20.54
2018-08-13T14:33:57.514Z,19.76
2018-08-13T14:36:27.882Z,19.52
2018-08-13T14:38:58.032Z,19.31
2018-08-13T14:41:28.337Z,19.17
2018-08-13T14:43:58.506Z,18.96
2018-08-13T14:46:28.740Z,18.98
2018-08-13T14:48:59.012Z,19.11
2018-08-13T14:51:29.214Z,19.35
2018-08-13T14:53:59.466Z,19.57
2018-08-13T14:56:29.589Z,20.13
2018-08-13T14:58:59.815Z,20.86
2018-08-13T15:01:30.025Z,21.30
2018-08-13T15:04:00.400Z,21.94
2018-08-13T15:06:30.578Z,21.89
2018-08-13T15:09:00.800Z,21.83
2018-08-13T15:11:39.897Z,21.98
2018-08-13T15:14:12.935Z,22.08
2018-08-13T15:16:43.142Z,21.99
2018-08-13T15:19:13.415Z,21.86
2018-08-13T15:21:43.680Z,21.56
2018-08-13T15:24:13.864Z,21.56
2018-08-13T15:26:44.124Z,22.00
2018-08-13T15:29:14.277Z,22.33
2018-08-13T15:31:44.421Z,22.77
2018-08-13T15:34:18.312Z,23.17
2018-08-13T15:36:48.464Z,23.09
2018-08-13T15:39:18.776Z,23.40
2018-08-13T15:41:48.927Z,23.61
2018-08-13T15:44:19.338Z,23.86
2018-08-13T15:46:49.530Z,23.30
2018-08-13T15:49:19.726Z,22.58
2018-08-13T15:51:49.932Z,22.02
2018-08-13T15:54:20.129Z,21.65
2018-08-13T15:56:50.295Z,21.35
2018-08-13T15:59:20.603Z,21.19
2018-08-13T16:01:50.835Z,21.19
2018-08-13T16:04:20.976Z,21.07
2018-08-13T16:06:51.127Z,21.02
2018-08-13T16:09:21.733Z,20.86
2018-08-13T16:11:51.907Z,20.74
2018-08-13T16:14:22.159Z,20.44
2018-08-13T16:16:52.254Z,20.45
2018-08-13T16:19:22.476Z,20.52
2018-08-13T16:21:52.995Z,20.47
2018-08-13T16:24:23.231Z,20.41
2018-08-13T16:26:55.598Z,20.26
2018-08-13T16:29:25.844Z,20.23
2018-08-13T16:31:56.010Z,20.33
2018-08-13T16:34:26.442Z,20.54
2018-08-13T16:36:56.779Z,20.93
2018-08-13T16:39:27.058Z,21.40
2018-08-13T16:41:57.470Z,21.71
2018-08-13T16:44:27.853Z,21.87
2018-08-13T16:46:58.077Z,22.04
2018-08-13T16:49:28.340Z,22.12
2018-08-13T16:51:58.471Z,21.68
2018-08-13T16:54:28.872Z,21.43
2018-08-13T16:56:59.119Z,21.38
2018-08-13T16:59:29.304Z,21.00
2018-08-13T17:01:59.421Z,20.80
2018-08-13T17:04:29.672Z,20.31
2018-08-13T17:06:59.952Z,20.09
2018-08-13T17:09:30.137Z,20.10
2018-08-13T17:12:00.250Z,20.04
2018-08-13T17:14:30.681Z,19.75
2018-08-13T17:17:00.678Z,19.58
2018-08-13T17:19:30.861Z,19.29
2018-08-13T17:22:01.107Z,19.08
2018-08-13T17:24:31.431Z,19.12
2018-08-13T17:27:01.667Z,19.12
2018-08-13T17:29:31.902Z,19.05
2018-08-13T17:32:02.108Z,19.23
2018-08-13T17:34:32.500Z,19.10
2018-08-13T17:37:02.712Z,18.94
2018-08-13T17:39:32.904Z,18.89
2018-08-13T17:42:03.095Z,18.98
2018-08-13T17:44:33.222Z,18.88
2018-08-13T17:47:03.360Z,18.78
2018-08-13T17:49:33.525Z,18.67
2018-08-13T17:52:03.630Z,18.54
2018-08-13T17:54:33.837Z,18.37
2018-08-13T17:57:04.387Z,18.26
2018-08-13T17:59:34.549Z,18.13
2018-08-13T18:02:04.748Z,18.15
2018-08-13T18:04:34.936Z,18.13
2018-08-13T18:07:05.831Z,18.03
2018-08-13T18:09:36.016Z,18.02
2018-08-13T18:12:06.184Z,18.01
2018-08-13T18:14:36.448Z,17.96
2018-08-13T18:17:06.589Z,18.00
2018-08-13T18:19:36.845Z,17.95
2018-08-13T18:22:07.628Z,17.92
2018-08-13T18:24:37.916Z,17.93
2018-08-13T18:27:12.542Z,17.94
2018-08-13T18:29:42.677Z,17.95
2018-08-13T18:32:13.254Z,17.91
2018-08-13T18:34:43.430Z,17.86
2018-08-13T18:37:13.883Z,17.94
2018-08-13T18:39:44.204Z,17.89
2018-08-13T18:42:14.363Z,17.95
2018-08-13T18:44:44.546Z,17.97
2018-08-13T18:47:14.971Z,17.98
2018-08-13T18:49:45.266Z,17.99
2018-08-13T18:52:15.390Z,17.98
2018-08-13T18:54:45.651Z,17.92
2018-08-13T18:57:15.813Z,17.89
2018-08-13T18:59:46.027Z,17.80
2018-08-13T19:02:16.246Z,17.75
2018-08-13T19:04:46.462Z,17.67
2018-08-13T19:07:16.619Z,17.63
2018-08-13T19:09:46.807Z,17.66
2018-08-13T19:12:16.992Z,17.50
2018-08-13T19:14:47.219Z,17.46
2018-08-13T19:17:17.426Z,17.47
2018-08-13T19:19:47.658Z,17.34
2018-08-13T19:22:18.219Z,17.33
2018-08-13T19:24:48.653Z,17.25
2018-08-13T19:27:18.857Z,17.20
2018-08-13T19:29:49.161Z,17.09
2018-08-13T19:32:19.322Z,16.99
2018-08-13T19:34:49.894Z,16.87
2018-08-13T19:37:20.089Z,16.87
2018-08-13T19:39:50.290Z,16.84
2018-08-13T19:42:20.473Z,16.74
2018-08-13T19:44:50.846Z,16.72
2018-08-13T19:47:21.067Z,16.61
2018-08-13T19:49:51.513Z,16.54
2018-08-13T19:52:21.781Z,16.55
2018-08-13T19:54:52.294Z,16.53
2018-08-13T19:57:22.524Z,16.60
2018-08-13T19:59:52.906Z,16.58
2018-08-13T20:02:23.499Z,16.55
2018-08-13T20:04:54.041Z,16.46
2018-08-13T20:07:24.230Z,16.33
2018-08-13T20:09:54.392Z,16.22
2018-08-13T20:12:24.716Z,16.27
2018-08-13T20:14:54.941Z,16.24
2018-08-13T20:17:25.964Z,16.21
2018-08-13T20:19:56.256Z,16.19
2018-08-13T20:22:26.421Z,16.29
2018-08-13T20:24:56.758Z,16.42
2018-08-13T20:27:26.945Z,16.51
2018-08-13T20:29:57.138Z,16.50
2018-08-13T20:32:27.335Z,16.41
2018-08-13T20:34:57.639Z,16.40
2018-08-13T20:37:28.095Z,16.29
2018-08-13T20:39:58.825Z,16.25
2018-08-13T20:42:29.206Z,16.21
2018-08-13T20:44:59.784Z,16.19
2018-08-13T20:47:30.392Z,16.14
2018-08-13T20:50:01.062Z,16.10
2018-08-13T20:52:31.283Z,16.02
2018-08-13T20:55:01.663Z,15.95
2018-08-13T20:57:31.791Z,15.99
2018-08-13T21:00:02.184Z,15.91
2018-08-13T21:02:33.424Z,15.83
2018-08-13T21:05:03.607Z,15.81
2018-08-13T21:07:34.007Z,15.81
2018-08-13T21:10:04.548Z,15.79
2018-08-13T21:12:34.789Z,15.73
2018-08-13T21:15:06.453Z,15.71
2018-08-13T21:17:36.688Z,15.76
2018-08-13T21:20:08.229Z,15.78
2018-08-13T21:22:38.969Z,15.85
2018-08-13T21:25:13.168Z,15.84
2018-08-13T21:27:43.975Z,15.81
2018-08-13T21:30:14.278Z,15.87
2018-08-13T21:32:44.869Z,15.97
2018-08-13T21:35:22.756Z,15.94
2018-08-13T21:37:53.264Z,15.96
2018-08-13T21:40:24.603Z,15.97
2018-08-13T21:42:54.990Z,15.99
2018-08-13T21:45:25.150Z,16.08
2018-08-13T21:47:55.324Z,16.10
2018-08-13T21:50:25.624Z,16.05
2018-08-13T21:52:55.877Z,16.01
2018-08-13T21:55:26.125Z,15.93
2018-08-13T21:57:56.289Z,15.98
2018-08-13T22:00:31.829Z,16.03
2018-08-13T22:03:03.636Z,16.18
2018-08-13T22:05:33.934Z,16.25
2018-08-13T22:08:04.224Z,16.31
2018-08-13T22:10:34.548Z,16.28
2018-08-13T22:13:04.866Z,16.34
2018-08-13T22:15:35.200Z,16.34
2018-08-13T22:18:07.917Z,16.48
2018-08-13T22:20:38.803Z,16.52
2018-08-13T22:23:09.817Z,16.50
2018-08-13T22:25:44.728Z,16.46
2018-08-13T22:28:18.332Z,16.49
2018-08-13T22:30:49.326Z,16.39
2018-08-13T22:33:22.960Z,16.24
2018-08-13T22:35:53.243Z,16.16
2018-08-13T22:38:23.352Z,16.17
2018-08-13T22:40:53.536Z,16.21
2018-08-13T22:43:23.666Z,16.19
2018-08-13T22:45:53.878Z,16.20
2018-08-13T22:48:24.045Z,16.28
2018-08-13T22:50:54.202Z,16.32
2018-08-13T22:53:25.148Z,16.52
2018-08-13T22:55:55.382Z,16.49
2018-08-13T22:58:25.512Z,16.47
2018-08-13T23:00:55.830Z,16.42
2018-08-13T23:03:25.979Z,16.45
2018-08-13T23:05:56.158Z,16.50
2018-08-13T23:08:26.397Z,16.51
2018-08-13T23:10:56.482Z,16.41
2018-08-13T23:13:26.836Z,16.34
2018-08-13T23:15:57.069Z,16.22
2018-08-13T23:18:27.189Z,16.20
2018-08-13T23:20:57.411Z,16.12
2018-08-13T23:23:27.568Z,16.08
2018-08-13T23:25:57.759Z,16.07
2018-08-13T23:28:27.865Z,16.06
2018-08-13T23:30:57.998Z,16.08
2018-08-13T23:33:28.165Z,16.06
2018-08-13T23:35:58.389Z,16.19
2018-08-13T23:38:28.562Z,16.27
2018-08-13T23:40:58.796Z,16.15
2018-08-13T23:43:29.192Z,16.11
2018-08-13T23:45:59.546Z,15.99
2018-08-13T23:48:29.786Z,15.96
2018-08-13T23:51:00.020Z,15.89
2018-08-13T23:53:30.132Z,15.87
2018-08-13T23:56:00.500Z,15.94
2018-08-13T23:58:30.678Z,15.83
